CheckWX is a tool to help pilots better visualize weather data.  It is not intended as a substitute for an official pre-flight weather briefing.

07:51:57 UTC

KRDG METAR
Reading Regional / Carl A Spaatz Field Airport
Reading, Pennsylvania, USA
Current

58 mins ago

KRDG 060654Z AUTO 02007KT 10SM SCT095 12/08 A3000 RMK AO2 RAE0558 SLP161 P0000 T01220083
Observed
Apr-6 @ 06:54 UTC
Wind
  • 020° at 7 KTS
Visibility
Flight Rules
VFR
Cloud Levels
  • Scattered at 9,500' AGL
Temperature
12°C / 54°F
Dewpoint
C / 46°F
Humidity
77%
Altimeter
30" Hg
Pressure
1015.92 hPa
Current Rain
0.01"
Previous

2 hours ago

KRDG 060554Z AUTO 02009KT 10SM -RA OVC085 13/09 A2999 RMK AO2 RAB41 SLP158 P0000 60000 T01280089 10172 20128 53005
Observed
Apr-6 @ 05:54 UTC
Wind
  • 020° at 9 KTS
Visibility
Flight Rules
VFR
Conditions
Light Rain
Cloud Levels
  • Overcast at 8,500' AGL
Temperature
13°C / 55°F
Dewpoint
C / 48°F
Humidity
77%
Altimeter
29.99" Hg
Pressure
1015.62 hPa
Current Rain
0.01"
Previous

3 hours ago

KRDG 060454Z AUTO 22003KT 10SM FEW075 BKN110 14/08 A2998 RMK AO2 SLP155 T01390083 402000083
Observed
Apr-6 @ 04:54 UTC
Wind
  • 220° at 3 KTS
Visibility
Flight Rules
VFR
Cloud Levels
  • Few at 7,500' AGL
  • Broken at 11,000' AGL
Dewpoint
C / 46°F
Humidity
67%
Altimeter
29.98" Hg
Pressure
1015.22 hPa